createdAt,value
2018-09-15T00:00:42.653Z,12.13
2018-09-15T00:03:09.882Z,11.90
2018-09-15T00:05:37.112Z,12.70
2018-09-15T00:08:04.337Z,10.53
2018-09-15T00:10:31.565Z,10.63
2018-09-15T00:12:58.911Z,13.63
2018-09-15T00:15:26.142Z,11.20
2018-09-15T00:17:54.274Z,9.80
2018-09-15T00:20:21.518Z,11.17
2018-09-15T00:22:48.737Z,11.53
2018-09-15T00:25:15.972Z,14.33
2018-09-15T00:27:43.221Z,10.30
2018-09-15T00:30:10.430Z,11.40
2018-09-15T00:32:37.654Z,12.77
2018-09-15T00:35:04.878Z,13.83
2018-09-15T00:37:32.107Z,11.60
2018-09-15T00:39:59.419Z,12.30
2018-09-15T00:42:26.708Z,10.73
2018-09-15T00:44:53.918Z,11.90
2018-09-15T00:47:21.146Z,11.17
2018-09-15T00:49:48.349Z,10.67
2018-09-15T00:52:15.554Z,12.80
2018-09-15T00:54:42.765Z,14.47
2018-09-15T00:57:10.001Z,11.30
2018-09-15T00:59:37.281Z,11.63
2018-09-15T01:02:04.573Z,11.73
2018-09-15T01:04:31.845Z,9.83
2018-09-15T01:06:59.106Z,13.47
2018-09-15T01:09:26.384Z,12.70
2018-09-15T01:11:53.649Z,11.17
2018-09-15T01:14:21.060Z,10.10
2018-09-15T01:16:48.216Z,13.73
2018-09-15T01:19:15.514Z,13.33
2018-09-15T01:21:42.781Z,10.90
2018-09-15T01:24:10.324Z,14.37
2018-09-15T01:26:37.643Z,12.00
2018-09-15T01:29:04.914Z,10.97
2018-09-15T01:31:32.190Z,13.53
2018-09-15T01:33:59.472Z,12.50
2018-09-15T01:36:26.729Z,15.70
2018-09-15T01:38:54.007Z,11.13
2018-09-15T01:41:21.296Z,23.53
2018-09-15T01:43:48.885Z,10.73
2018-09-15T01:46:16.169Z,10.27
2018-09-15T01:48:43.477Z,10.90
2018-09-15T01:51:10.751Z,11.93
2018-09-15T01:53:38.005Z,10.17
2018-09-15T01:56:05.312Z,12.50
2018-09-15T01:58:32.610Z,12.07
2018-09-15T02:00:59.870Z,11.97
2018-09-15T02:03:28.029Z,13.00
2018-09-15T02:05:55.297Z,12.13
2018-09-15T02:08:22.585Z,11.87
2018-09-15T02:10:50.555Z,10.83
2018-09-15T02:13:17.812Z,12.00
2018-09-15T02:15:45.098Z,11.40
2018-09-15T02:18:12.368Z,13.20
2018-09-15T02:20:39.652Z,15.10
2018-09-15T02:23:06.978Z,9.93
2018-09-15T02:25:34.234Z,12.40
2018-09-15T02:28:01.536Z,11.23
2018-09-15T02:30:28.911Z,14.13
2018-09-15T02:32:56.202Z,10.87
2018-09-15T02:35:23.509Z,11.77
2018-09-15T02:37:50.806Z,10.00
2018-09-15T02:40:18.078Z,13.63
2018-09-15T02:42:45.373Z,12.97
2018-09-15T02:45:12.657Z,10.27
2018-09-15T02:47:39.931Z,11.23
2018-09-15T02:50:07.351Z,11.33
2018-09-15T02:52:34.608Z,12.57
2018-09-15T02:55:01.918Z,10.33
2018-09-15T02:57:29.197Z,11.27
2018-09-15T02:59:56.486Z,13.00
2018-09-15T03:02:23.805Z,11.10
2018-09-15T03:04:51.064Z,11.70
2018-09-15T03:07:18.364Z,14.30
2018-09-15T03:09:45.648Z,11.10
2018-09-15T03:12:12.946Z,11.40
2018-09-15T03:14:40.202Z,9.67
2018-09-15T03:17:07.505Z,11.20
2018-09-15T03:19:34.807Z,13.00
2018-09-15T03:22:02.106Z,16.13
2018-09-15T03:24:29.361Z,11.83
2018-09-15T03:26:56.662Z,11.37
2018-09-15T03:29:23.926Z,15.90
2018-09-15T03:31:51.217Z,12.33
2018-09-15T03:34:18.489Z,12.80
2018-09-15T03:36:45.765Z,11.40
2018-09-15T03:39:13.079Z,10.20
2018-09-15T03:41:41.042Z,11.80
2018-09-15T03:44:08.263Z,11.40
2018-09-15T03:46:35.518Z,12.33
2018-09-15T03:49:02.805Z,12.10
2018-09-15T03:51:30.073Z,11.67
2018-09-15T03:53:57.353Z,10.93
2018-09-15T03:56:24.598Z,13.90
2018-09-15T03:58:51.920Z,11.30
2018-09-15T04:01:19.195Z,11.50
2018-09-15T04:03:46.466Z,11.07
2018-09-15T04:06:13.742Z,12.87
2018-09-15T04:08:41.014Z,13.10
2018-09-15T04:11:08.282Z,11.13
2018-09-15T04:13:35.557Z,13.90
2018-09-15T04:16:02.820Z,10.70
2018-09-15T04:18:30.102Z,12.60
2018-09-15T04:20:57.513Z,10.37
2018-09-15T04:23:24.809Z,10.80
2018-09-15T04:25:52.077Z,10.20
2018-09-15T04:28:19.413Z,13.90
2018-09-15T04:30:46.648Z,10.10
2018-09-15T04:33:13.931Z,12.23
2018-09-15T04:35:41.210Z,11.13
2018-09-15T04:38:08.477Z,11.87
2018-09-15T04:40:35.781Z,10.50
2018-09-15T04:43:03.061Z,11.57
2018-09-15T04:45:30.450Z,14.37
2018-09-15T04:47:57.799Z,11.90
2018-09-15T04:50:25.161Z,10.23
2018-09-15T04:52:52.434Z,11.27
2018-09-15T04:55:19.765Z,12.53
2018-09-15T04:57:47.041Z,10.83
2018-09-15T05:00:14.268Z,13.60
2018-09-15T05:02:41.493Z,13.33
2018-09-15T05:05:08.725Z,12.70
2018-09-15T05:07:35.952Z,12.60
2018-09-15T05:10:03.198Z,11.70
2018-09-15T05:12:30.545Z,13.53
2018-09-15T05:14:57.733Z,13.07
2018-09-15T05:17:24.941Z,11.50
2018-09-15T05:19:52.222Z,11.63
2018-09-15T05:22:19.467Z,10.57
2018-09-15T05:24:46.717Z,10.20
2018-09-15T05:27:13.950Z,10.97
2018-09-15T05:29:41.208Z,10.30
2018-09-15T05:32:08.400Z,13.13
2018-09-15T05:34:35.784Z,12.73
2018-09-15T05:37:03.033Z,14.00
2018-09-15T05:39:30.245Z,10.77
2018-09-15T05:41:57.563Z,11.50
2018-09-15T05:44:24.834Z,16.03
2018-09-15T05:46:52.081Z,10.90
2018-09-15T05:49:19.285Z,11.83
2018-09-15T05:51:46.503Z,12.80
2018-09-15T05:54:13.709Z,12.37
2018-09-15T05:56:40.973Z,10.73
2018-09-15T05:59:08.237Z,10.97
2018-09-15T06:01:35.582Z,11.60
2018-09-15T06:04:02.865Z,10.97
2018-09-15T06:06:30.149Z,11.57
2018-09-15T06:08:57.409Z,13.80
2018-09-15T06:11:24.678Z,12.43
2018-09-15T06:13:52.004Z,12.80
2018-09-15T06:16:19.242Z,14.20
2018-09-15T06:18:46.545Z,14.10
2018-09-15T06:21:13.818Z,12.60
2018-09-15T06:23:41.098Z,13.13
2018-09-15T06:26:09.841Z,11.53
2018-09-15T06:28:37.135Z,14.53
2018-09-15T06:31:04.773Z,13.27
2018-09-15T06:33:32.042Z,14.10
2018-09-15T06:35:59.373Z,13.37
2018-09-15T06:38:26.655Z,15.23
2018-09-15T06:40:53.904Z,15.87
2018-09-15T06:43:21.190Z,13.53
2018-09-15T06:45:48.529Z,20.30
2018-09-15T06:48:15.750Z,17.43
2018-09-15T06:50:43.021Z,13.97
2018-09-15T06:53:10.317Z,15.40
2018-09-15T06:55:37.577Z,16.67
2018-09-15T06:58:04.849Z,17.13
2018-09-15T07:00:32.213Z,15.93
2018-09-15T07:02:59.545Z,18.03
2018-09-15T07:05:26.873Z,20.70
2018-09-15T07:07:54.153Z,16.93
2018-09-15T07:10:21.474Z,17.73
2018-09-15T07:12:48.775Z,17.73
2018-09-15T07:15:16.081Z,16.23
2018-09-15T07:17:43.358Z,19.50
2018-09-15T07:20:10.780Z,16.27
2018-09-15T07:22:38.021Z,13.33
2018-09-15T07:25:05.446Z,14.83
2018-09-15T07:27:32.712Z,17.60
2018-09-15T07:30:00.014Z,14.70
2018-09-15T07:32:27.318Z,16.53
2018-09-15T07:34:54.846Z,12.17
2018-09-15T07:37:22.127Z,17.00
2018-09-15T07:39:49.401Z,14.50
2018-09-15T07:42:16.757Z,14.40
2018-09-15T07:44:44.130Z,13.07
2018-09-15T07:47:11.280Z,12.83
2018-09-15T07:49:38.529Z,12.43
2018-09-15T07:52:05.757Z,12.77
2018-09-15T07:54:32.986Z,11.53
2018-09-15T07:57:00.194Z,14.43
2018-09-15T07:59:27.701Z,12.37
2018-09-15T08:01:55.019Z,15.40
2018-09-15T08:04:22.312Z,8.50
2018-09-15T08:06:49.608Z,10.83
2018-09-15T08:09:16.881Z,15.10
2018-09-15T08:11:44.164Z,11.07
2018-09-15T08:14:11.429Z,14.30
2018-09-15T08:16:38.750Z,9.73
2018-09-15T08:19:06.005Z,12.60
2018-09-15T08:21:33.283Z,10.73
2018-09-15T08:24:00.544Z,8.73
2018-09-15T08:26:27.911Z,9.07
2018-09-15T08:28:55.286Z,11.30
2018-09-15T08:31:22.562Z,11.50
2018-09-15T08:33:49.837Z,9.53
2018-09-15T08:36:17.100Z,10.63
2018-09-15T08:38:44.392Z,11.37
2018-09-15T08:41:11.729Z,8.10
2018-09-15T08:43:39.053Z,12.70
2018-09-15T08:46:06.353Z,13.23
2018-09-15T08:48:33.613Z,17.43
2018-09-15T08:51:00.889Z,13.33
2018-09-15T08:53:28.149Z,13.20
2018-09-15T08:55:55.485Z,11.30
2018-09-15T08:58:22.766Z,8.97
2018-09-15T09:00:50.069Z,14.10
2018-09-15T09:03:18.366Z,12.60
2018-09-15T09:05:45.690Z,8.07
2018-09-15T09:08:12.998Z,10.97
2018-09-15T09:10:40.253Z,14.07
2018-09-15T09:13:07.530Z,10.00
2018-09-15T09:15:34.789Z,10.93
2018-09-15T09:18:02.073Z,11.47
2018-09-15T09:20:29.329Z,14.23
2018-09-15T09:22:56.617Z,8.53
2018-09-15T09:25:23.903Z,13.00
2018-09-15T09:27:51.189Z,12.67
2018-09-15T09:30:18.446Z,14.53
2018-09-15T09:32:45.714Z,12.93
2018-09-15T09:35:12.977Z,10.03
2018-09-15T09:37:40.284Z,14.57
2018-09-15T09:40:07.662Z,11.37
2018-09-15T09:42:34.993Z,11.93
2018-09-15T09:45:02.270Z,14.90
2018-09-15T09:47:29.533Z,12.03
2018-09-15T09:49:56.777Z,8.93
2018-09-15T09:52:24.041Z,8.70
2018-09-15T09:54:51.337Z,8.50
2018-09-15T09:57:18.604Z,11.97
2018-09-15T09:59:45.957Z,9.37
2018-09-15T10:02:14.297Z,13.10
2018-09-15T10:04:41.646Z,12.00
2018-09-15T10:07:09.199Z,8.30
2018-09-15T10:09:36.761Z,6.10
2018-09-15T10:12:04.037Z,12.70
2018-09-15T10:14:31.301Z,8.40
2018-09-15T10:16:58.575Z,5.47
2018-09-15T10:19:25.830Z,7.20
2018-09-15T10:21:53.097Z,7.93
2018-09-15T10:24:20.349Z,7.00
2018-09-15T10:26:47.725Z,8.47
2018-09-15T10:29:14.997Z,6.93
2018-09-15T10:31:42.272Z,5.70
2018-09-15T10:34:09.538Z,5.80
2018-09-15T10:36:36.790Z,5.00
2018-09-15T10:39:06.730Z,4.03
2018-09-15T10:41:33.981Z,7.20
2018-09-15T10:44:01.314Z,5.70
2018-09-15T10:46:28.577Z,8.70
2018-09-15T10:48:55.986Z,9.53
2018-09-15T10:51:23.273Z,9.00
2018-09-15T10:53:50.533Z,6.07
2018-09-15T10:56:17.805Z,5.13
2018-09-15T10:58:45.013Z,8.60
2018-09-15T11:01:12.233Z,3.23
2018-09-15T11:03:39.459Z,35.13
2018-09-15T11:06:06.702Z,6.27
2018-09-15T11:08:33.898Z,6.40
2018-09-15T11:11:01.116Z,16.17
2018-09-15T11:13:28.469Z,5.20
2018-09-15T11:15:55.627Z,4.43
2018-09-15T11:18:22.797Z,5.50
2018-09-15T11:20:50.017Z,7.03
2018-09-15T11:23:17.225Z,5.93
2018-09-15T11:25:44.507Z,7.87
2018-09-15T11:28:11.706Z,6.73
2018-09-15T11:30:38.929Z,6.63
2018-09-15T11:33:06.159Z,5.23
2018-09-15T11:35:33.346Z,5.93
2018-09-15T11:38:00.577Z,5.57
2018-09-15T11:40:27.781Z,8.67
2018-09-15T11:42:55.002Z,9.27
2018-09-15T11:45:22.222Z,5.67
2018-09-15T11:47:49.446Z,5.70
2018-09-15T11:50:16.743Z,6.37
2018-09-15T11:52:43.991Z,6.80
2018-09-15T11:55:11.245Z,7.27
2018-09-15T11:57:38.474Z,7.03
2018-09-15T12:00:06.315Z,7.40
2018-09-15T12:02:33.578Z,8.37
2018-09-15T12:05:00.863Z,7.50
2018-09-15T12:07:28.544Z,6.67
2018-09-15T12:09:56.525Z,5.93
2018-09-15T12:12:23.836Z,10.50
2018-09-15T12:14:51.154Z,10.50
2018-09-15T12:17:18.422Z,6.67
2018-09-15T12:19:45.905Z,7.67
2018-09-15T12:22:13.177Z,7.90
2018-09-15T12:24:40.449Z,8.43
2018-09-15T12:27:07.701Z,6.90
2018-09-15T12:29:35.023Z,8.33
2018-09-15T12:32:02.417Z,7.53
2018-09-15T12:34:29.705Z,9.30
2018-09-15T12:36:57.682Z,5.83
2018-09-15T12:39:25.150Z,6.00
2018-09-15T12:41:52.354Z,5.90
2018-09-15T12:44:19.681Z,8.10
2018-09-15T12:46:46.930Z,6.13
2018-09-15T12:49:14.205Z,6.30
2018-09-15T12:51:41.478Z,11.53
2018-09-15T12:54:08.749Z,6.43
2018-09-15T12:56:36.019Z,7.13
2018-09-15T12:59:03.297Z,6.93
2018-09-15T13:01:30.558Z,5.03
2018-09-15T13:03:57.859Z,8.70
2018-09-15T13:06:25.161Z,7.13
2018-09-15T13:08:52.428Z,6.50
2018-09-15T13:11:19.737Z,6.83
2018-09-15T13:13:47.052Z,5.53
2018-09-15T13:16:14.333Z,5.40
2018-09-15T13:18:41.649Z,7.03
2018-09-15T13:21:08.933Z,7.00
2018-09-15T13:23:36.209Z,8.43
2018-09-15T13:26:03.482Z,12.10
2018-09-15T13:28:30.753Z,4.77
2018-09-15T13:30:58.038Z,5.37
2018-09-15T13:33:25.307Z,4.77
2018-09-15T13:35:52.574Z,5.97
2018-09-15T13:38:19.926Z,3.57
2018-09-15T13:40:47.173Z,4.10
2018-09-15T13:43:14.433Z,4.27
2018-09-15T13:45:41.714Z,5.57
2018-09-15T13:48:08.978Z,8.20
2018-09-15T13:50:36.264Z,8.80
2018-09-15T13:53:03.555Z,8.13
2018-09-15T13:55:34.589Z,7.70
2018-09-15T13:58:01.865Z,4.70
2018-09-15T14:00:29.138Z,4.90
2018-09-15T14:02:56.425Z,6.87
2018-09-15T14:05:23.694Z,5.73
2018-09-15T14:07:51.014Z,5.20
2018-09-15T14:10:19.009Z,8.70
2018-09-15T14:12:45.584Z,4.97
2018-09-15T14:15:12.853Z,4.60
2018-09-15T14:17:40.194Z,5.57
2018-09-15T14:20:07.466Z,4.17
2018-09-15T14:22:34.769Z,4.33
2018-09-15T14:25:02.093Z,3.70
2018-09-15T14:27:29.401Z,5.63
2018-09-15T14:29:56.745Z,7.07
2018-09-15T14:32:24.042Z,5.30
2018-09-15T14:34:51.376Z,6.30
2018-09-15T14:37:18.670Z,6.23
2018-09-15T14:39:45.938Z,4.90
2018-09-15T14:42:13.219Z,5.90
2018-09-15T14:44:40.493Z,4.73
2018-09-15T14:47:07.882Z,4.63
2018-09-15T14:49:35.226Z,6.30
2018-09-15T14:52:02.497Z,5.33
2018-09-15T14:54:29.784Z,6.10
2018-09-15T14:56:57.186Z,4.20
2018-09-15T14:59:24.421Z,4.07
2018-09-15T15:01:51.638Z,5.67
2018-09-15T15:04:18.857Z,6.87
2018-09-15T15:06:46.082Z,8.40
2018-09-15T15:09:13.321Z,5.07
2018-09-15T15:11:40.594Z,4.23
2018-09-15T15:14:08.296Z,5.23
2018-09-15T15:16:35.535Z,3.50
2018-09-15T15:19:02.773Z,3.90
2018-09-15T15:21:30.098Z,2.90
2018-09-15T15:23:57.361Z,4.10
2018-09-15T15:26:24.643Z,3.70
2018-09-15T15:28:51.969Z,3.80
2018-09-15T15:31:19.170Z,4.60
2018-09-15T15:33:46.378Z,4.80
2018-09-15T15:36:13.601Z,3.30
2018-09-15T15:38:40.805Z,5.03
2018-09-15T15:41:08.035Z,5.50
2018-09-15T15:43:35.305Z,3.23
2018-09-15T15:46:02.469Z,3.87
2018-09-15T15:48:29.665Z,6.07
2018-09-15T15:50:56.877Z,4.50
2018-09-15T15:53:24.085Z,5.50
2018-09-15T15:55:51.311Z,5.03
2018-09-15T15:58:18.583Z,11.67
2018-09-15T16:00:45.794Z,7.63
2018-09-15T16:03:13.053Z,2.83
2018-09-15T16:05:40.327Z,6.00
2018-09-15T16:08:07.621Z,5.37
2018-09-15T16:10:34.936Z,4.60
2018-09-15T16:13:02.321Z,4.63
2018-09-15T16:15:29.581Z,3.87
2018-09-15T16:17:56.845Z,4.73
2018-09-15T16:20:24.121Z,3.87
2018-09-15T16:22:51.398Z,5.57
2018-09-15T16:25:18.668Z,4.83
2018-09-15T16:27:45.957Z,3.13
2018-09-15T16:30:13.221Z,3.23
2018-09-15T16:32:40.494Z,3.47
2018-09-15T16:35:07.754Z,3.10
2018-09-15T16:37:35.033Z,3.10
2018-09-15T16:40:02.329Z,3.73
2018-09-15T16:42:29.605Z,2.00
2018-09-15T16:44:56.884Z,3.90
2018-09-15T16:47:24.242Z,5.37
2018-09-15T16:49:51.542Z,6.20
2018-09-15T16:52:18.817Z,3.40
2018-09-15T16:54:46.090Z,5.17
2018-09-15T16:57:13.369Z,4.30
2018-09-15T16:59:40.577Z,3.67
2018-09-15T17:02:07.856Z,6.10
2018-09-15T17:04:35.065Z,3.60
2018-09-15T17:07:02.289Z,6.20
2018-09-15T17:09:29.662Z,3.83
2018-09-15T17:11:56.874Z,6.97
2018-09-15T17:14:24.125Z,3.33
2018-09-15T17:16:51.330Z,9.37
2018-09-15T17:19:18.581Z,3.20
2018-09-15T17:21:45.816Z,3.70
2018-09-15T17:24:13.133Z,4.80
2018-09-15T17:26:40.349Z,3.80
2018-09-15T17:29:07.577Z,4.40
2018-09-15T17:31:34.813Z,3.93
2018-09-15T17:34:02.017Z,3.63
2018-09-15T17:36:29.229Z,6.17
2018-09-15T17:38:56.502Z,3.93
2018-09-15T17:41:23.709Z,5.20
2018-09-15T17:43:51.066Z,5.90
2018-09-15T17:46:18.281Z,5.20
2018-09-15T17:48:45.515Z,3.00
2018-09-15T17:51:12.729Z,3.07
2018-09-15T17:53:39.926Z,4.83
2018-09-15T17:56:07.149Z,6.67
2018-09-15T17:58:34.378Z,10.83
2018-09-15T18:01:01.651Z,8.73
2018-09-15T18:03:28.972Z,9.30
2018-09-15T18:05:56.221Z,7.87
2018-09-15T18:08:23.490Z,14.87
2018-09-15T18:10:50.790Z,5.27
2018-09-15T18:13:18.061Z,9.17
2018-09-15T18:15:45.331Z,15.73
2018-09-15T18:18:12.602Z,20.80
2018-09-15T18:20:39.886Z,3.77
2018-09-15T18:23:07.229Z,4.63
2018-09-15T18:25:34.562Z,5.97
2018-09-15T18:28:01.903Z,8.13
2018-09-15T18:30:29.145Z,12.87
2018-09-15T18:32:56.386Z,5.70
2018-09-15T18:35:23.633Z,5.30
2018-09-15T18:37:50.897Z,5.87
2018-09-15T18:40:18.148Z,10.50
2018-09-15T18:42:45.370Z,25.47
2018-09-15T18:45:12.582Z,11.27
2018-09-15T18:47:39.801Z,6.03
2018-09-15T18:50:07.070Z,6.80
2018-09-15T18:52:34.281Z,8.13
2018-09-15T18:55:01.545Z,4.87
2018-09-15T18:57:28.793Z,5.03
2018-09-15T18:59:56.094Z,5.17
2018-09-15T19:02:23.334Z,7.10
2018-09-15T19:04:50.656Z,8.73
2018-09-15T19:07:17.877Z,4.63
2018-09-15T19:09:45.217Z,6.23
2018-09-15T19:12:12.464Z,3.50
2018-09-15T19:14:39.704Z,7.93
2018-09-15T19:17:06.918Z,4.57
2018-09-15T19:19:34.129Z,6.87
2018-09-15T19:22:01.746Z,4.97
2018-09-15T19:24:28.977Z,4.87
2018-09-15T19:26:56.224Z,9.40
2018-09-15T19:29:23.445Z,6.30
2018-09-15T19:31:50.718Z,6.03
2018-09-15T19:34:18.029Z,7.80
2018-09-15T19:36:45.290Z,7.93
2018-09-15T19:39:13.678Z,6.60
2018-09-15T19:41:40.873Z,7.50
2018-09-15T19:44:08.138Z,6.87
2018-09-15T19:46:35.841Z,5.20
2018-09-15T19:49:03.087Z,5.07
2018-09-15T19:54:04.309Z,9.57
2018-09-15T19:56:31.541Z,8.27
2018-09-15T19:58:58.778Z,8.20
2018-09-15T20:01:26.058Z,7.77
2018-09-15T20:03:54.202Z,8.03
2018-09-15T20:06:21.438Z,7.20
2018-09-15T20:08:48.687Z,9.37
2018-09-15T20:11:15.890Z,7.40
2018-09-15T20:13:43.143Z,9.60
2018-09-15T20:16:09.466Z,6.37
2018-09-15T20:18:35.765Z,5.97
2018-09-15T20:21:02.133Z,7.97
2018-09-15T20:23:29.354Z,6.53
2018-09-15T20:25:56.573Z,6.70
2018-09-15T20:28:23.957Z,10.50
2018-09-15T20:30:51.187Z,8.80
2018-09-15T20:33:18.593Z,14.40
2018-09-15T20:35:45.783Z,13.47
2018-09-15T20:38:13.017Z,10.93
2018-09-15T20:40:40.237Z,8.40
2018-09-15T20:43:07.465Z,9.00
2018-09-15T20:45:34.682Z,7.83
2018-09-15T20:48:01.920Z,10.33
2018-09-15T20:50:29.125Z,11.40
2018-09-15T20:52:56.427Z,15.00
2018-09-15T20:55:23.676Z,12.27
2018-09-15T20:57:50.902Z,13.00
2018-09-15T21:00:18.389Z,11.20
2018-09-15T21:02:45.653Z,13.83
2018-09-15T21:05:12.997Z,9.03
2018-09-15T21:07:40.281Z,13.53
2018-09-15T21:10:07.620Z,7.77
2018-09-15T21:12:35.054Z,10.30
2018-09-15T21:15:02.401Z,9.63
2018-09-15T21:17:29.689Z,10.93
2018-09-15T21:19:56.986Z,8.77
2018-09-15T21:22:24.270Z,12.13
2018-09-15T21:24:51.593Z,11.23
2018-09-15T21:27:18.886Z,10.77
2018-09-15T21:29:46.307Z,10.70
2018-09-15T21:32:13.601Z,10.10
2018-09-15T21:34:40.973Z,8.70
2018-09-15T21:37:08.486Z,9.63
2018-09-15T21:39:35.783Z,9.43
2018-09-15T21:42:03.249Z,6.70
2018-09-15T21:44:30.565Z,6.70
2018-09-15T21:46:57.853Z,7.30
2018-09-15T21:49:25.251Z,6.83
2018-09-15T21:51:52.541Z,6.30
2018-09-15T21:54:19.933Z,7.03
2018-09-15T21:56:47.205Z,7.17
2018-09-15T21:59:14.525Z,7.40
2018-09-15T22:01:41.810Z,7.17
2018-09-15T22:04:15.806Z,6.27
2018-09-15T22:06:43.319Z,7.33
2018-09-15T22:09:11.997Z,8.70
2018-09-15T22:11:39.281Z,8.00
2018-09-15T22:14:06.571Z,5.37
2018-09-15T22:16:34.267Z,6.73
2018-09-15T22:19:01.825Z,9.57
2018-09-15T22:21:29.313Z,8.40
2018-09-15T22:23:56.615Z,6.70
2018-09-15T22:26:23.893Z,5.10
2018-09-15T22:28:51.174Z,5.53
2018-09-15T22:31:18.485Z,6.43
2018-09-15T22:33:45.754Z,4.87
2018-09-15T22:36:13.237Z,5.87
2018-09-15T22:38:40.508Z,7.97
2018-09-15T22:41:07.810Z,4.47
2018-09-15T22:43:35.071Z,6.40
2018-09-15T22:46:02.422Z,8.57
2018-09-15T22:48:29.673Z,7.70
2018-09-15T22:50:56.968Z,6.10
2018-09-15T22:53:24.294Z,5.40
2018-09-15T22:55:51.569Z,5.20
2018-09-15T22:58:18.897Z,6.80
2018-09-15T23:00:46.334Z,6.83
2018-09-15T23:03:13.642Z,5.40
2018-09-15T23:05:41.133Z,8.73
2018-09-15T23:08:08.524Z,6.20
2018-09-15T23:10:35.989Z,5.57
2018-09-15T23:13:03.258Z,8.20
2018-09-15T23:15:34.466Z,6.97
2018-09-15T23:18:01.896Z,7.73
2018-09-15T23:20:29.170Z,7.63
2018-09-15T23:22:56.459Z,7.40
2018-09-15T23:25:23.941Z,6.70
2018-09-15T23:27:51.266Z,9.07
2018-09-15T23:30:18.595Z,9.97
2018-09-15T23:32:46.170Z,6.90
2018-09-15T23:35:13.519Z,8.60
2018-09-15T23:37:41.103Z,7.90
2018-09-15T23:40:08.507Z,7.87
2018-09-15T23:42:35.825Z,8.70
2018-09-15T23:45:03.189Z,8.17
2018-09-15T23:47:30.462Z,9.90
2018-09-15T23:49:57.861Z,8.40
2018-09-15T23:52:25.197Z,8.83
2018-09-15T23:54:52.520Z,7.73
2018-09-15T23:57:19.788Z,7.97
2018-09-15T23:59:47.265Z,6.87
